PRLFR SBVT-SBSP
Flight info
| Callsign | PRLFR |
|---|---|
| Flight time | 1h 58m |
| Altitude | 28000 |
| Route | USVAG GIKTO UZ95 ADA UZ45 IBDAL |
| Aircraft | TBM8/L-SDE3GHIJ2J3J5M1RVWXYZ/LB1 |
Departure
| Time | 2026-05-07 22:01 |
|---|---|
| Airport | Eurico de Aguiar Salles International Airport (SBVT) |
Arrival
| Time | 2026-05-08 00:00 |
|---|---|
| Airport | Congonhas–Deputado Freitas Nobre Airport (SBSP) |
| Time | Latitude | Longitude | Altitude | Speed | Heading |
|---|---|---|---|---|---|
| 2026-05-07 21:27 | -20.25940 | -40.29018 | 10 ft | 0 kts | 209° |
| 2026-05-07 21:37 | -20.25939 | -40.29017 | 10 ft | 2 kts | 211° |
| 2026-05-07 21:38 | -20.25934 | -40.29002 | 10 ft | 2 kts | 304° |
| 2026-05-07 21:38 | -20.25946 | -40.28990 | 10 ft | 2 kts | 321° |
| 2026-05-07 21:38 | -20.25960 | -40.28980 | 10 ft | 2 kts | 342° |
| 2026-05-07 21:38 | -20.25974 | -40.28982 | 10 ft | 1 kts | 27° |
| 2026-05-07 21:39 | -20.25975 | -40.28983 | 10 ft | 0 kts | 28° |
| 2026-05-07 21:52 | -20.25965 | -40.28972 | 10 ft | 8 kts | 56° |
| 2026-05-07 21:52 | -20.25952 | -40.28961 | 10 ft | 2 kts | 306° |
| 2026-05-07 21:52 | -20.25991 | -40.28993 | 10 ft | 10 kts | 213° |
| 2026-05-07 21:53 | -20.26077 | -40.29051 | 10 ft | 19 kts | 214° |
| 2026-05-07 21:53 | -20.26187 | -40.29124 | 10 ft | 12 kts | 208° |
| 2026-05-07 21:53 | -20.26239 | -40.29143 | 10 ft | 4 kts | 182° |
| 2026-05-07 21:53 | -20.26272 | -40.29143 | 10 ft | 8 kts | 178° |
| 2026-05-07 21:54 | -20.26304 | -40.29138 | 10 ft | 0 kts | 161° |
| 2026-05-07 21:55 | -20.26307 | -40.29137 | 10 ft | 3 kts | 166° |
| 2026-05-07 21:56 | -20.26345 | -40.29128 | 10 ft | 4 kts | 167° |
| 2026-05-07 21:56 | -20.26357 | -40.29125 | 10 ft | 7 kts | 167° |
| 2026-05-07 21:56 | -20.26413 | -40.29108 | 11 ft | 6 kts | 171° |
| 2026-05-07 21:56 | -20.26428 | -40.29107 | 11 ft | 2 kts | 153° |
| 2026-05-07 21:57 | -20.26426 | -40.29096 | 11 ft | 5 kts | 33° |
| 2026-05-07 21:57 | -20.26411 | -40.29089 | 11 ft | 6 kts | 26° |
| 2026-05-07 21:57 | -20.26396 | -40.29079 | 11 ft | 0 kts | 30° |
| 2026-05-07 22:00 | -20.26392 | -40.29077 | 11 ft | 7 kts | 30° |
| 2026-05-07 22:00 | -20.26204 | -40.28957 | 12 ft | 57 kts | 32° |
| 2026-05-07 22:00 | -20.25739 | -40.28648 | 9 ft | 100 kts | 30° |
| 2026-05-07 22:01 | -20.25084 | -40.28205 | 157 ft | 117 kts | 34° |
| 2026-05-07 22:01 | -20.24389 | -40.27719 | 502 ft | 125 kts | 35° |
| 2026-05-07 22:01 | -20.23694 | -40.27163 | 884 ft | 128 kts | 43° |
| 2026-05-07 22:01 | -20.22979 | -40.26549 | 1181 ft | 135 kts | 28° |
| 2026-05-07 22:02 | -20.22127 | -40.26055 | 1512 ft | 142 kts | 26° |
| 2026-05-07 22:02 | -20.21180 | -40.25551 | 1574 ft | 168 kts | 26° |
| 2026-05-07 22:02 | -20.20056 | -40.25052 | 1767 ft | 175 kts | 20° |
| 2026-05-07 22:02 | -20.18943 | -40.24607 | 2195 ft | 169 kts | 22° |
| 2026-05-07 22:03 | -20.17893 | -40.24087 | 2564 ft | 167 kts | 31° |
| 2026-05-07 22:03 | -20.17020 | -40.23248 | 2784 ft | 174 kts | 49° |
| 2026-05-07 22:03 | -20.16178 | -40.22328 | 3170 ft | 169 kts | 30° |
| 2026-05-07 22:03 | -20.15043 | -40.22067 | 3451 ft | 177 kts | 358° |
| 2026-05-07 22:04 | -20.13931 | -40.22623 | 3781 ft | 182 kts | 316° |
| 2026-05-07 22:04 | -20.13403 | -40.23860 | 4036 ft | 194 kts | 281° |
| 2026-05-07 22:04 | -20.13462 | -40.25327 | 4258 ft | 201 kts | 265° |
| 2026-05-07 22:04 | -20.13463 | -40.26808 | 4476 ft | 201 kts | 282° |
| 2026-05-07 22:05 | -20.12984 | -40.28183 | 4699 ft | 198 kts | 304° |
| 2026-05-07 22:05 | -20.12141 | -40.29299 | 5006 ft | 190 kts | 318° |
| 2026-05-07 22:05 | -20.11350 | -40.30417 | 5295 ft | 191 kts | 306° |
| 2026-05-07 22:05 | -20.10625 | -40.31625 | 5479 ft | 196 kts | 309° |
| 2026-05-07 22:06 | -20.09813 | -40.32785 | 5761 ft | 195 kts | 309° |
| 2026-05-07 22:06 | -20.09276 | -40.34127 | 6137 ft | 196 kts | 283° |
| 2026-05-07 22:06 | -20.09061 | -40.35578 | 6347 ft | 198 kts | 289° |
| 2026-05-07 22:06 | -20.08492 | -40.36870 | 6597 ft | 193 kts | 304° |
| 2026-05-07 22:07 | -20.07960 | -40.38200 | 6791 ft | 199 kts | 283° |
| 2026-05-07 22:07 | -20.08090 | -40.39679 | 6993 ft | 205 kts | 250° |
| 2026-05-07 22:07 | -20.08912 | -40.40896 | 7223 ft | 203 kts | 218° |
| 2026-05-07 22:07 | -20.10140 | -40.41538 | 7509 ft | 196 kts | 198° |
| 2026-05-07 22:08 | -20.11368 | -40.42174 | 7786 ft | 194 kts | 210° |
| 2026-05-07 22:08 | -20.12489 | -40.42950 | 8068 ft | 192 kts | 212° |
| 2026-05-07 22:08 | -20.13621 | -40.43739 | 8365 ft | 190 kts | 211° |
| 2026-05-07 22:08 | -20.14734 | -40.44497 | 8658 ft | 189 kts | 211° |
| 2026-05-07 22:09 | -20.15827 | -40.45242 | 8949 ft | 188 kts | 211° |
| 2026-05-07 22:09 | -20.16934 | -40.45997 | 9246 ft | 187 kts | 211° |
| 2026-05-07 22:09 | -20.18033 | -40.46748 | 9553 ft | 186 kts | 211° |
| 2026-05-07 22:09 | -20.19113 | -40.47485 | 9847 ft | 186 kts | 211° |
| 2026-05-07 22:10 | -20.20203 | -40.48231 | 10136 ft | 185 kts | 211° |
| 2026-05-07 22:10 | -20.21283 | -40.48967 | 10411 ft | 186 kts | 211° |
| 2026-05-07 22:10 | -20.22389 | -40.49718 | 10692 ft | 189 kts | 211° |
| 2026-05-07 22:10 | -20.23502 | -40.50477 | 10973 ft | 190 kts | 211° |
| 2026-05-07 22:11 | -20.24616 | -40.51243 | 11267 ft | 193 kts | 212° |
| 2026-05-07 22:11 | -20.25752 | -40.52023 | 11585 ft | 194 kts | 211° |
| 2026-05-07 22:11 | -20.26900 | -40.52808 | 11905 ft | 196 kts | 211° |
| 2026-05-07 22:11 | -20.28033 | -40.53583 | 12217 ft | 197 kts | 211° |
| 2026-05-07 22:12 | -20.29199 | -40.54382 | 12542 ft | 198 kts | 211° |
| 2026-05-07 22:12 | -20.30362 | -40.55178 | 12864 ft | 199 kts | 211° |
| 2026-05-07 22:12 | -20.31521 | -40.55971 | 13203 ft | 199 kts | 212° |
| 2026-05-07 22:12 | -20.32693 | -40.56773 | 13522 ft | 198 kts | 211° |
| 2026-05-07 22:13 | -20.33842 | -40.57559 | 13856 ft | 197 kts | 211° |
| 2026-05-07 22:13 | -20.35008 | -40.58357 | 14157 ft | 198 kts | 211° |
| 2026-05-07 22:13 | -20.36168 | -40.59152 | 14452 ft | 198 kts | 211° |
| 2026-05-07 22:13 | -20.37322 | -40.59942 | 14747 ft | 197 kts | 211° |
| 2026-05-07 22:14 | -20.38462 | -40.60724 | 15042 ft | 197 kts | 212° |
| 2026-05-07 22:14 | -20.39628 | -40.61525 | 15303 ft | 199 kts | 211° |
| 2026-05-07 22:14 | -20.40792 | -40.62323 | 15563 ft | 200 kts | 212° |
| 2026-05-07 22:14 | -20.41976 | -40.63134 | 15828 ft | 201 kts | 211° |
| 2026-05-07 22:15 | -20.43143 | -40.63935 | 16090 ft | 202 kts | 212° |
| 2026-05-07 22:15 | -20.44334 | -40.64751 | 16358 ft | 203 kts | 211° |
| 2026-05-07 22:15 | -20.45525 | -40.65568 | 16631 ft | 204 kts | 211° |
| 2026-05-07 22:15 | -20.46719 | -40.66388 | 16901 ft | 204 kts | 211° |
| 2026-05-07 22:16 | -20.47922 | -40.67214 | 17170 ft | 205 kts | 211° |
| 2026-05-07 22:16 | -20.49113 | -40.68030 | 17444 ft | 205 kts | 211° |
| 2026-05-07 22:16 | -20.50313 | -40.68853 | 17722 ft | 205 kts | 211° |
| 2026-05-07 22:16 | -20.51514 | -40.69677 | 18002 ft | 205 kts | 211° |
| 2026-05-07 22:17 | -20.52715 | -40.70504 | 18286 ft | 205 kts | 211° |
| 2026-05-07 22:17 | -20.53915 | -40.71327 | 18539 ft | 204 kts | 211° |
| 2026-05-07 22:17 | -20.55109 | -40.72147 | 18792 ft | 204 kts | 211° |
| 2026-05-07 22:17 | -20.56298 | -40.72964 | 19034 ft | 203 kts | 211° |
| 2026-05-07 22:18 | -20.57479 | -40.73775 | 19286 ft | 201 kts | 211° |
| 2026-05-07 22:18 | -20.59443 | -40.75126 | 19705 ft | 199 kts | 211° |
| 2026-05-07 22:18 | -20.60609 | -40.75928 | 19959 ft | 199 kts | 210° |
| 2026-05-07 22:19 | -20.61762 | -40.76720 | 20214 ft | 197 kts | 211° |
| 2026-05-07 22:19 | -20.62914 | -40.77514 | 20459 ft | 197 kts | 210° |
| 2026-05-07 22:19 | -20.64070 | -40.78306 | 20673 ft | 199 kts | 211° |
| 2026-05-07 22:19 | -20.65244 | -40.79117 | 20894 ft | 200 kts | 210° |
| 2026-05-07 22:20 | -20.66417 | -40.79924 | 21106 ft | 201 kts | 211° |
| 2026-05-07 22:20 | -20.67597 | -40.80737 | 21329 ft | 201 kts | 210° |
| 2026-05-07 22:20 | -20.68766 | -40.81540 | 21549 ft | 202 kts | 211° |
| 2026-05-07 22:20 | -20.69887 | -40.82453 | 21759 ft | 204 kts | 223° |
| 2026-05-07 22:21 | -20.70828 | -40.83607 | 21984 ft | 206 kts | 227° |
| 2026-05-07 22:21 | -20.71760 | -40.84759 | 22209 ft | 206 kts | 225° |
| 2026-05-07 22:21 | -20.72716 | -40.85898 | 22442 ft | 206 kts | 225° |
| 2026-05-07 22:21 | -20.73674 | -40.87037 | 22667 ft | 205 kts | 225° |
| 2026-05-07 22:22 | -20.74623 | -40.88172 | 22895 ft | 205 kts | 225° |
| 2026-05-07 22:22 | -20.75579 | -40.89315 | 23130 ft | 205 kts | 225° |
| 2026-05-07 22:22 | -20.76528 | -40.90451 | 23361 ft | 203 kts | 225° |
| 2026-05-07 22:22 | -20.77461 | -40.91567 | 23592 ft | 202 kts | 225° |
| 2026-05-07 22:23 | -20.78400 | -40.92687 | 23821 ft | 200 kts | 225° |
| 2026-05-07 22:23 | -20.79312 | -40.93781 | 24059 ft | 195 kts | 225° |
| 2026-05-07 22:23 | -20.80213 | -40.94856 | 24300 ft | 192 kts | 224° |
| 2026-05-07 22:23 | -20.81089 | -40.95904 | 24536 ft | 188 kts | 224° |
| 2026-05-07 22:24 | -20.81949 | -40.96934 | 24778 ft | 184 kts | 224° |
| 2026-05-07 22:24 | -20.82795 | -40.97947 | 25023 ft | 179 kts | 224° |
| 2026-05-07 22:24 | -20.83605 | -40.98915 | 25259 ft | 175 kts | 224° |
| 2026-05-07 22:24 | -20.84413 | -40.99883 | 25436 ft | 173 kts | 224° |
| 2026-05-07 22:25 | -20.85215 | -41.00845 | 25617 ft | 171 kts | 223° |
| 2026-05-07 22:25 | -20.86091 | -41.01667 | 25820 ft | 165 kts | 204° |
| 2026-05-07 22:25 | -20.87142 | -41.02165 | 25987 ft | 163 kts | 200° |
| 2026-05-07 22:25 | -20.88160 | -41.02663 | 26142 ft | 161 kts | 202° |
| 2026-05-07 22:26 | -20.89181 | -41.03174 | 26294 ft | 161 kts | 202° |
| 2026-05-07 22:26 | -20.90192 | -41.03682 | 26434 ft | 161 kts | 202° |
| 2026-05-07 22:26 | -20.91205 | -41.04191 | 26566 ft | 160 kts | 202° |
| 2026-05-07 22:26 | -20.92220 | -41.04700 | 26667 ft | 162 kts | 202° |
| 2026-05-07 22:27 | -20.93250 | -41.05217 | 26763 ft | 164 kts | 202° |
| 2026-05-07 22:27 | -20.94287 | -41.05739 | 26861 ft | 167 kts | 202° |
| 2026-05-07 22:27 | -20.95353 | -41.06275 | 26966 ft | 169 kts | 202° |
| 2026-05-07 22:27 | -20.96418 | -41.06809 | 27066 ft | 172 kts | 202° |
| 2026-05-07 22:28 | -20.97522 | -41.07364 | 27172 ft | 175 kts | 202° |
| 2026-05-07 22:28 | -20.98630 | -41.07920 | 27284 ft | 178 kts | 202° |
| 2026-05-07 22:28 | -20.99762 | -41.08488 | 27381 ft | 181 kts | 202° |
| 2026-05-07 22:28 | -21.00909 | -41.09064 | 27486 ft | 184 kts | 202° |
| 2026-05-07 22:29 | -21.02074 | -41.09649 | 27592 ft | 186 kts | 202° |
| 2026-05-07 22:29 | -21.03254 | -41.10242 | 27695 ft | 189 kts | 202° |
| 2026-05-07 22:29 | -21.04452 | -41.10844 | 27803 ft | 192 kts | 202° |
| 2026-05-07 22:29 | -21.05664 | -41.11454 | 27907 ft | 194 kts | 202° |
| 2026-05-07 22:30 | -21.06897 | -41.12073 | 27996 ft | 198 kts | 202° |
| 2026-05-07 22:30 | -21.08167 | -41.12711 | 28073 ft | 202 kts | 202° |
| 2026-05-07 22:30 | -21.09456 | -41.13360 | 28080 ft | 208 kts | 203° |
| 2026-05-07 22:30 | -21.10778 | -41.14026 | 28083 ft | 214 kts | 203° |
| 2026-05-07 22:31 | -21.12133 | -41.14705 | 28081 ft | 218 kts | 203° |
| 2026-05-07 22:31 | -21.13537 | -41.15414 | 28082 ft | 224 kts | 203° |
| 2026-05-07 22:31 | -21.14955 | -41.16129 | 28081 ft | 229 kts | 203° |
| 2026-05-07 22:31 | -21.16414 | -41.16862 | 28084 ft | 233 kts | 203° |
| 2026-05-07 22:32 | -21.17902 | -41.17611 | 28083 ft | 237 kts | 203° |
| 2026-05-07 22:32 | -21.19389 | -41.18360 | 28084 ft | 241 kts | 203° |
| 2026-05-07 22:32 | -21.20930 | -41.19137 | 28086 ft | 244 kts | 203° |
| 2026-05-07 22:32 | -21.22463 | -41.19909 | 28083 ft | 247 kts | 204° |
| 2026-05-07 22:33 | -21.24026 | -41.20697 | 28084 ft | 250 kts | 204° |
| 2026-05-07 22:33 | -21.25608 | -41.21494 | 28084 ft | 252 kts | 204° |
| 2026-05-07 22:33 | -21.27204 | -41.22298 | 28078 ft | 254 kts | 204° |
| 2026-05-07 22:33 | -21.28823 | -41.23115 | 28081 ft | 256 kts | 204° |
| 2026-05-07 22:34 | -21.30447 | -41.23935 | 28077 ft | 258 kts | 204° |
| 2026-05-07 22:34 | -21.32071 | -41.24754 | 28080 ft | 260 kts | 204° |
| 2026-05-07 22:34 | -21.33716 | -41.25584 | 28084 ft | 261 kts | 204° |
| 2026-05-07 22:34 | -21.35366 | -41.26417 | 28081 ft | 262 kts | 204° |
| 2026-05-07 22:35 | -21.37025 | -41.27254 | 28079 ft | 264 kts | 204° |
| 2026-05-07 22:35 | -21.38683 | -41.28092 | 28076 ft | 265 kts | 204° |
| 2026-05-07 22:35 | -21.40359 | -41.28939 | 28078 ft | 266 kts | 204° |
| 2026-05-07 22:35 | -21.42021 | -41.29778 | 28074 ft | 266 kts | 204° |
| 2026-05-07 22:36 | -21.43707 | -41.30630 | 28077 ft | 267 kts | 204° |
| 2026-05-07 22:36 | -21.45402 | -41.31487 | 28068 ft | 268 kts | 204° |
| 2026-05-07 22:36 | -21.47072 | -41.32331 | 28068 ft | 269 kts | 204° |
| 2026-05-07 22:36 | -21.48778 | -41.33194 | 28066 ft | 269 kts | 204° |
| 2026-05-07 22:37 | -21.50469 | -41.34049 | 28066 ft | 270 kts | 204° |
| 2026-05-07 22:37 | -21.52164 | -41.34907 | 28064 ft | 270 kts | 204° |
| 2026-05-07 22:37 | -21.53875 | -41.35774 | 28063 ft | 271 kts | 204° |
| 2026-05-07 22:37 | -21.55571 | -41.36639 | 28062 ft | 271 kts | 204° |
| 2026-05-07 22:38 | -21.57282 | -41.37510 | 28060 ft | 271 kts | 204° |
| 2026-05-07 22:38 | -21.58984 | -41.38376 | 28062 ft | 272 kts | 204° |
| 2026-05-07 22:38 | -21.60702 | -41.39250 | 28057 ft | 272 kts | 204° |
| 2026-05-07 22:38 | -21.62419 | -41.40125 | 28059 ft | 272 kts | 204° |
| 2026-05-07 22:39 | -21.64130 | -41.40996 | 28060 ft | 272 kts | 204° |
| 2026-05-07 22:39 | -21.65835 | -41.41864 | 28058 ft | 272 kts | 204° |
| 2026-05-07 22:39 | -21.67555 | -41.42737 | 28056 ft | 273 kts | 204° |
| 2026-05-07 22:39 | -21.69269 | -41.43607 | 28058 ft | 273 kts | 204° |
| 2026-05-07 22:40 | -21.70983 | -41.44479 | 28060 ft | 273 kts | 204° |
| 2026-05-07 22:40 | -21.72701 | -41.45352 | 28059 ft | 273 kts | 204° |
| 2026-05-07 22:40 | -21.74410 | -41.46223 | 28062 ft | 273 kts | 204° |
| 2026-05-07 22:40 | -21.76133 | -41.47096 | 28062 ft | 273 kts | 204° |
| 2026-05-07 22:41 | -21.77846 | -41.47968 | 28063 ft | 273 kts | 205° |
| 2026-05-07 22:41 | -21.79562 | -41.48842 | 28070 ft | 273 kts | 205° |
| 2026-05-07 22:41 | -21.81284 | -41.49719 | 28068 ft | 274 kts | 205° |
| 2026-05-07 22:41 | -21.83009 | -41.50597 | 28069 ft | 274 kts | 205° |
| 2026-05-07 22:42 | -21.84736 | -41.51476 | 28073 ft | 274 kts | 205° |
| 2026-05-07 22:42 | -21.86469 | -41.52359 | 28073 ft | 274 kts | 205° |
| 2026-05-07 22:42 | -21.88195 | -41.53239 | 28076 ft | 274 kts | 205° |
| 2026-05-07 22:42 | -21.89924 | -41.54120 | 28076 ft | 275 kts | 205° |
| 2026-05-07 22:43 | -21.91630 | -41.54990 | 28079 ft | 275 kts | 205° |
| 2026-05-07 22:43 | -21.93357 | -41.55870 | 28081 ft | 275 kts | 205° |
| 2026-05-07 22:43 | -21.95102 | -41.56760 | 28084 ft | 275 kts | 205° |
| 2026-05-07 22:43 | -21.96829 | -41.57642 | 28084 ft | 275 kts | 205° |
| 2026-05-07 22:44 | -21.98554 | -41.58522 | 28085 ft | 275 kts | 205° |
| 2026-05-07 22:44 | -22.00292 | -41.59409 | 28088 ft | 275 kts | 205° |
| 2026-05-07 22:44 | -22.02020 | -41.60292 | 28084 ft | 275 kts | 205° |
| 2026-05-07 22:44 | -22.03743 | -41.61172 | 28081 ft | 275 kts | 205° |
| 2026-05-07 22:45 | -22.05484 | -41.62061 | 28075 ft | 275 kts | 205° |
| 2026-05-07 22:45 | -22.07228 | -41.62953 | 28073 ft | 276 kts | 205° |
| 2026-05-07 22:45 | -22.08954 | -41.63835 | 28070 ft | 276 kts | 205° |
| 2026-05-07 22:45 | -22.10687 | -41.64721 | 28062 ft | 276 kts | 205° |
| 2026-05-07 22:46 | -22.12420 | -41.65607 | 28058 ft | 276 kts | 205° |
| 2026-05-07 22:46 | -22.14165 | -41.66499 | 28054 ft | 276 kts | 205° |
| 2026-05-07 22:46 | -22.15876 | -41.67375 | 28050 ft | 276 kts | 205° |
| 2026-05-07 22:46 | -22.17613 | -41.68264 | 28045 ft | 276 kts | 205° |
| 2026-05-07 22:47 | -22.19348 | -41.69152 | 28041 ft | 276 kts | 205° |
| 2026-05-07 22:47 | -22.21088 | -41.70043 | 28038 ft | 276 kts | 205° |
| 2026-05-07 22:47 | -22.22817 | -41.70928 | 28035 ft | 276 kts | 205° |
| 2026-05-07 22:47 | -22.24569 | -41.71826 | 28032 ft | 276 kts | 205° |
| 2026-05-07 22:48 | -22.26301 | -41.72714 | 28027 ft | 276 kts | 205° |
| 2026-05-07 22:48 | -22.28052 | -41.73611 | 28031 ft | 276 kts | 205° |
| 2026-05-07 22:48 | -22.29783 | -41.74499 | 28028 ft | 276 kts | 205° |
| 2026-05-07 22:48 | -22.31512 | -41.75385 | 28028 ft | 276 kts | 205° |
| 2026-05-07 22:49 | -22.33254 | -41.76279 | 28027 ft | 276 kts | 205° |
| 2026-05-07 22:49 | -22.34954 | -41.77220 | 28022 ft | 276 kts | 211° |
| 2026-05-07 22:49 | -22.36583 | -41.78364 | 28024 ft | 276 kts | 213° |
| 2026-05-07 22:49 | -22.38189 | -41.79497 | 28025 ft | 276 kts | 212° |
| 2026-05-07 22:50 | -22.39800 | -41.80612 | 28025 ft | 276 kts | 212° |
| 2026-05-07 22:50 | -22.40891 | -41.81365 | 28026 ft | 276 kts | 212° |
| 2026-05-07 22:50 | -22.42511 | -41.82489 | 28026 ft | 276 kts | 212° |
| 2026-05-07 22:50 | -22.44120 | -41.83610 | 28031 ft | 276 kts | 212° |
| 2026-05-07 22:51 | -22.45748 | -41.84742 | 28035 ft | 276 kts | 212° |
| 2026-05-07 22:51 | -22.47358 | -41.85861 | 28037 ft | 276 kts | 212° |
| 2026-05-07 22:51 | -22.48961 | -41.86976 | 28037 ft | 276 kts | 212° |
| 2026-05-07 22:51 | -22.50589 | -41.88109 | 28040 ft | 276 kts | 212° |
| 2026-05-07 22:52 | -22.52203 | -41.89232 | 28041 ft | 276 kts | 212° |
| 2026-05-07 22:52 | -22.53822 | -41.90359 | 28048 ft | 276 kts | 212° |
| 2026-05-07 22:52 | -22.55443 | -41.91488 | 28046 ft | 276 kts | 212° |
| 2026-05-07 22:52 | -22.57043 | -41.92603 | 28049 ft | 276 kts | 212° |
| 2026-05-07 22:53 | -22.58671 | -41.93738 | 28048 ft | 276 kts | 212° |
| 2026-05-07 22:53 | -22.60284 | -41.94862 | 28046 ft | 276 kts | 212° |
| 2026-05-07 22:53 | -22.61903 | -41.95990 | 28043 ft | 276 kts | 212° |
| 2026-05-07 22:53 | -22.63514 | -41.97114 | 28038 ft | 276 kts | 212° |
| 2026-05-07 22:54 | -22.65121 | -41.98236 | 28043 ft | 276 kts | 212° |
| 2026-05-07 22:54 | -22.66724 | -41.99354 | 28030 ft | 276 kts | 212° |
| 2026-05-07 22:54 | -22.68353 | -42.00491 | 28030 ft | 276 kts | 212° |
| 2026-05-07 22:54 | -22.69947 | -42.01604 | 28028 ft | 276 kts | 212° |
| 2026-05-07 22:55 | -22.71557 | -42.02729 | 28020 ft | 276 kts | 212° |
| 2026-05-07 22:55 | -22.73179 | -42.03861 | 28022 ft | 276 kts | 212° |
| 2026-05-07 22:55 | -22.74801 | -42.04995 | 28017 ft | 276 kts | 212° |
| 2026-05-07 22:55 | -22.76412 | -42.06121 | 28020 ft | 276 kts | 212° |
| 2026-05-07 22:56 | -22.78010 | -42.07238 | 28015 ft | 276 kts | 212° |
| 2026-05-07 22:56 | -22.79637 | -42.08377 | 28019 ft | 276 kts | 212° |
| 2026-05-07 22:56 | -22.81144 | -42.09637 | 28007 ft | 276 kts | 226° |
| 2026-05-07 22:56 | -22.82194 | -42.11385 | 28015 ft | 278 kts | 243° |
| 2026-05-07 22:57 | -22.82949 | -42.13343 | 28013 ft | 279 kts | 246° |
| 2026-05-07 22:57 | -22.83706 | -42.15280 | 28015 ft | 278 kts | 243° |
| 2026-05-07 22:57 | -22.84535 | -42.17178 | 28017 ft | 278 kts | 242° |
| 2026-05-07 22:57 | -22.85368 | -42.19077 | 28015 ft | 278 kts | 243° |
| 2026-05-07 22:58 | -22.86167 | -42.20963 | 28020 ft | 278 kts | 243° |
| 2026-05-07 22:58 | -22.86975 | -42.22877 | 28017 ft | 278 kts | 243° |
| 2026-05-07 22:58 | -22.87793 | -42.24795 | 28022 ft | 278 kts | 243° |
| 2026-05-07 22:58 | -22.88599 | -42.26683 | 28018 ft | 278 kts | 243° |
| 2026-05-07 22:59 | -22.89408 | -42.28585 | 28024 ft | 278 kts | 243° |
| 2026-05-07 22:59 | -22.90218 | -42.30489 | 28021 ft | 278 kts | 243° |
| 2026-05-07 22:59 | -22.91030 | -42.32398 | 28020 ft | 278 kts | 243° |
| 2026-05-07 22:59 | -22.91844 | -42.34314 | 28026 ft | 278 kts | 243° |
| 2026-05-07 23:00 | -22.92653 | -42.36216 | 28023 ft | 278 kts | 243° |
| 2026-05-07 23:00 | -22.93455 | -42.38104 | 28024 ft | 278 kts | 243° |
| 2026-05-07 23:00 | -22.94269 | -42.40023 | 28024 ft | 278 kts | 243° |
| 2026-05-07 23:00 | -22.95079 | -42.41933 | 28022 ft | 278 kts | 243° |
| 2026-05-07 23:01 | -22.95886 | -42.43834 | 28021 ft | 278 kts | 243° |
| 2026-05-07 23:01 | -22.96693 | -42.45737 | 28019 ft | 278 kts | 243° |
| 2026-05-07 23:01 | -22.97495 | -42.47629 | 28023 ft | 278 kts | 242° |
| 2026-05-07 23:01 | -22.98307 | -42.49545 | 28016 ft | 278 kts | 242° |
| 2026-05-07 23:02 | -22.99115 | -42.51452 | 28025 ft | 277 kts | 242° |
| 2026-05-07 23:02 | -22.99914 | -42.53341 | 28026 ft | 277 kts | 242° |
| 2026-05-07 23:02 | -23.00720 | -42.55245 | 28029 ft | 277 kts | 242° |
| 2026-05-07 23:02 | -23.01536 | -42.57173 | 28029 ft | 277 kts | 242° |
| 2026-05-07 23:03 | -23.02336 | -42.59064 | 28025 ft | 277 kts | 242° |
| 2026-05-07 23:03 | -23.03141 | -42.60968 | 28026 ft | 277 kts | 242° |
| 2026-05-07 23:03 | -23.03949 | -42.62882 | 28022 ft | 277 kts | 242° |
| 2026-05-07 23:03 | -23.04741 | -42.64759 | 28021 ft | 277 kts | 242° |
| 2026-05-07 23:04 | -23.05545 | -42.66659 | 28022 ft | 277 kts | 242° |
| 2026-05-07 23:04 | -23.06353 | -42.68572 | 28018 ft | 277 kts | 242° |
| 2026-05-07 23:04 | -23.07150 | -42.70465 | 28021 ft | 277 kts | 242° |
| 2026-05-07 23:04 | -23.07951 | -42.72365 | 28017 ft | 277 kts | 242° |
| 2026-05-07 23:05 | -23.08758 | -42.74280 | 28019 ft | 277 kts | 242° |
| 2026-05-07 23:05 | -23.09563 | -42.76188 | 28016 ft | 277 kts | 242° |
| 2026-05-07 23:05 | -23.10362 | -42.78085 | 28014 ft | 277 kts | 242° |
| 2026-05-07 23:05 | -23.11163 | -42.79987 | 28011 ft | 277 kts | 242° |
| 2026-05-07 23:06 | -23.11969 | -42.81904 | 28010 ft | 277 kts | 242° |
| 2026-05-07 23:06 | -23.12770 | -42.83807 | 28010 ft | 276 kts | 242° |
| 2026-05-07 23:06 | -23.13569 | -42.85706 | 28011 ft | 276 kts | 242° |
| 2026-05-07 23:06 | -23.14363 | -42.87596 | 28009 ft | 276 kts | 242° |
| 2026-05-07 23:07 | -23.15157 | -42.89486 | 28011 ft | 276 kts | 242° |
| 2026-05-07 23:07 | -23.15871 | -42.91186 | 28002 ft | 276 kts | 242° |
| 2026-05-07 23:07 | -23.16648 | -42.93037 | 28000 ft | 276 kts | 242° |
| 2026-05-07 23:07 | -23.17445 | -42.94935 | 27996 ft | 276 kts | 242° |
| 2026-05-07 23:08 | -23.18241 | -42.96834 | 28000 ft | 276 kts | 242° |
| 2026-05-07 23:08 | -23.19041 | -42.98740 | 27999 ft | 276 kts | 242° |
| 2026-05-07 23:08 | -23.19839 | -43.00644 | 27993 ft | 276 kts | 242° |
| 2026-05-07 23:08 | -23.20632 | -43.02536 | 27996 ft | 276 kts | 242° |
| 2026-05-07 23:09 | -23.21422 | -43.04422 | 27997 ft | 276 kts | 242° |
| 2026-05-07 23:09 | -23.22426 | -43.06186 | 27999 ft | 272 kts | 226° |
| 2026-05-07 23:09 | -23.23780 | -43.07611 | 28011 ft | 271 kts | 221° |
| 2026-05-07 23:09 | -23.25105 | -43.09069 | 28008 ft | 271 kts | 226° |
| 2026-05-07 23:10 | -23.26281 | -43.10667 | 28000 ft | 273 kts | 232° |
| 2026-05-07 23:10 | -23.27277 | -43.12430 | 27995 ft | 274 kts | 239° |
| 2026-05-07 23:10 | -23.27987 | -43.14373 | 27994 ft | 277 kts | 251° |
| 2026-05-07 23:10 | -23.28410 | -43.16430 | 27990 ft | 279 kts | 255° |
| 2026-05-07 23:11 | -23.28808 | -43.18491 | 27992 ft | 278 kts | 253° |
| 2026-05-07 23:11 | -23.29297 | -43.20519 | 27994 ft | 277 kts | 251° |
| 2026-05-07 23:11 | -23.29800 | -43.22521 | 27991 ft | 277 kts | 251° |
| 2026-05-07 23:11 | -23.30281 | -43.24557 | 27992 ft | 277 kts | 252° |
| 2026-05-07 23:12 | -23.30753 | -43.26593 | 27990 ft | 277 kts | 252° |
| 2026-05-07 23:12 | -23.31233 | -43.28628 | 27991 ft | 277 kts | 252° |
| 2026-05-07 23:12 | -23.31717 | -43.30666 | 27991 ft | 277 kts | 252° |
| 2026-05-07 23:12 | -23.32201 | -43.32714 | 27989 ft | 277 kts | 252° |
| 2026-05-07 23:13 | -23.32678 | -43.34741 | 27986 ft | 277 kts | 252° |
| 2026-05-07 23:13 | -23.33154 | -43.36762 | 27987 ft | 276 kts | 252° |
| 2026-05-07 23:13 | -23.33629 | -43.38775 | 27986 ft | 276 kts | 252° |
| 2026-05-07 23:13 | -23.34106 | -43.40802 | 27984 ft | 276 kts | 252° |
| 2026-05-07 23:14 | -23.34588 | -43.42851 | 27988 ft | 276 kts | 252° |
| 2026-05-07 23:14 | -23.35059 | -43.44854 | 27985 ft | 276 kts | 252° |
| 2026-05-07 23:14 | -23.35539 | -43.46898 | 27987 ft | 276 kts | 252° |
| 2026-05-07 23:14 | -23.36013 | -43.48918 | 27985 ft | 276 kts | 252° |
| 2026-05-07 23:15 | -23.36489 | -43.50947 | 27985 ft | 276 kts | 252° |
| 2026-05-07 23:15 | -23.36961 | -43.52957 | 27979 ft | 276 kts | 252° |
| 2026-05-07 23:15 | -23.37438 | -43.54993 | 27981 ft | 276 kts | 252° |
| 2026-05-07 23:15 | -23.37914 | -43.57025 | 27986 ft | 276 kts | 252° |
| 2026-05-07 23:16 | -23.38384 | -43.59033 | 27981 ft | 276 kts | 252° |
| 2026-05-07 23:16 | -23.38862 | -43.61073 | 27981 ft | 276 kts | 252° |
| 2026-05-07 23:16 | -23.39330 | -43.63077 | 27979 ft | 276 kts | 252° |
| 2026-05-07 23:16 | -23.39802 | -43.65097 | 27981 ft | 276 kts | 252° |
| 2026-05-07 23:17 | -23.40274 | -43.67117 | 27978 ft | 276 kts | 252° |
| 2026-05-07 23:17 | -23.40748 | -43.69149 | 27975 ft | 276 kts | 252° |
| 2026-05-07 23:17 | -23.41220 | -43.71174 | 27973 ft | 276 kts | 252° |
| 2026-05-07 23:17 | -23.41693 | -43.73204 | 27972 ft | 275 kts | 252° |
| 2026-05-07 23:18 | -23.42162 | -43.75217 | 27974 ft | 275 kts | 252° |
| 2026-05-07 23:18 | -23.42634 | -43.77243 | 27972 ft | 275 kts | 252° |
| 2026-05-07 23:18 | -23.43101 | -43.79251 | 27974 ft | 275 kts | 252° |
| 2026-05-07 23:18 | -23.43572 | -43.81277 | 27976 ft | 275 kts | 252° |
| 2026-05-07 23:19 | -23.44038 | -43.83281 | 27973 ft | 275 kts | 252° |
| 2026-05-07 23:19 | -23.44505 | -43.85293 | 27974 ft | 275 kts | 252° |
| 2026-05-07 23:19 | -23.44977 | -43.87327 | 27973 ft | 275 kts | 252° |
| 2026-05-07 23:19 | -23.45447 | -43.89354 | 27973 ft | 275 kts | 252° |
| 2026-05-07 23:20 | -23.45913 | -43.91362 | 27968 ft | 275 kts | 253° |
| 2026-05-07 23:20 | -23.46382 | -43.93389 | 27968 ft | 275 kts | 252° |
| 2026-05-07 23:20 | -23.46848 | -43.95404 | 27967 ft | 274 kts | 252° |
| 2026-05-07 23:20 | -23.47311 | -43.97405 | 27964 ft | 274 kts | 252° |
| 2026-05-07 23:21 | -23.47779 | -43.99429 | 27966 ft | 274 kts | 252° |
| 2026-05-07 23:21 | -23.48244 | -44.01442 | 27965 ft | 274 kts | 252° |
| 2026-05-07 23:21 | -23.48713 | -44.03457 | 27968 ft | 274 kts | 252° |
| 2026-05-07 23:21 | -23.48778 | -44.05524 | 27963 ft | 282 kts | 278° |
| 2026-05-07 23:22 | -23.48260 | -44.06882 | 27962 ft | 289 kts | 296° |
| 2026-05-07 23:22 | -23.47062 | -44.08632 | 27970 ft | 293 kts | 305° |
| 2026-05-07 23:22 | -23.45727 | -44.10309 | 27967 ft | 294 kts | 306° |
| 2026-05-07 23:22 | -23.44352 | -44.11985 | 27964 ft | 294 kts | 307° |
| 2026-05-07 23:23 | -23.42997 | -44.13624 | 27967 ft | 294 kts | 307° |
| 2026-05-07 23:23 | -23.41622 | -44.15280 | 27963 ft | 294 kts | 307° |
| 2026-05-07 23:23 | -23.40254 | -44.16929 | 27965 ft | 294 kts | 307° |
| 2026-05-07 23:23 | -23.38884 | -44.18579 | 27967 ft | 294 kts | 307° |
| 2026-05-07 23:24 | -23.37519 | -44.20223 | 27967 ft | 294 kts | 307° |
| 2026-05-07 23:24 | -23.36141 | -44.21884 | 27964 ft | 294 kts | 307° |
| 2026-05-07 23:24 | -23.34815 | -44.23570 | 27966 ft | 291 kts | 298° |
| 2026-05-07 23:24 | -23.34022 | -44.25545 | 27975 ft | 282 kts | 279° |
| 2026-05-07 23:25 | -23.33957 | -44.27645 | 27982 ft | 274 kts | 255° |
| 2026-05-07 23:25 | -23.34633 | -44.29543 | 27983 ft | 270 kts | 240° |
| 2026-05-07 23:25 | -23.35549 | -44.31348 | 27980 ft | 270 kts | 238° |
| 2026-05-07 23:25 | -23.36494 | -44.33103 | 27982 ft | 270 kts | 237° |
| 2026-05-07 23:26 | -23.37448 | -44.34851 | 27978 ft | 270 kts | 237° |
| 2026-05-07 23:26 | -23.38407 | -44.36599 | 27981 ft | 270 kts | 237° |
| 2026-05-07 23:26 | -23.39371 | -44.38355 | 27981 ft | 270 kts | 237° |
| 2026-05-07 23:26 | -23.40339 | -44.40118 | 27981 ft | 270 kts | 237° |
| 2026-05-07 23:27 | -23.42268 | -44.43621 | 27979 ft | 270 kts | 237° |
| 2026-05-07 23:27 | -23.43229 | -44.45365 | 27980 ft | 270 kts | 237° |
| 2026-05-07 23:27 | -23.44199 | -44.47124 | 27977 ft | 270 kts | 237° |
| 2026-05-07 23:28 | -23.45170 | -44.48884 | 27979 ft | 270 kts | 237° |
| 2026-05-07 23:28 | -23.46140 | -44.50639 | 27978 ft | 270 kts | 237° |
| 2026-05-07 23:28 | -23.47158 | -44.52340 | 27977 ft | 269 kts | 233° |
| 2026-05-07 23:28 | -23.48282 | -44.53986 | 27978 ft | 269 kts | 231° |
| 2026-05-07 23:29 | -23.49416 | -44.55603 | 27980 ft | 269 kts | 231° |
| 2026-05-07 23:29 | -23.50555 | -44.57216 | 27978 ft | 269 kts | 231° |
| 2026-05-07 23:29 | -23.51703 | -44.58839 | 27975 ft | 269 kts | 231° |
| 2026-05-07 23:29 | -23.52848 | -44.60457 | 27979 ft | 269 kts | 231° |
| 2026-05-07 23:30 | -23.53989 | -44.62064 | 27977 ft | 269 kts | 231° |
| 2026-05-07 23:30 | -23.55139 | -44.63685 | 27978 ft | 269 kts | 231° |
| 2026-05-07 23:30 | -23.56138 | -44.65412 | 27966 ft | 270 kts | 242° |
| 2026-05-07 23:30 | -23.56870 | -44.67298 | 27965 ft | 271 kts | 246° |
| 2026-05-07 23:31 | -23.57538 | -44.69205 | 27964 ft | 271 kts | 247° |
| 2026-05-07 23:31 | -23.58197 | -44.71122 | 27964 ft | 271 kts | 247° |
| 2026-05-07 23:31 | -23.58861 | -44.73063 | 27963 ft | 271 kts | 247° |
| 2026-05-07 23:31 | -23.59519 | -44.74992 | 27967 ft | 271 kts | 247° |
| 2026-05-07 23:32 | -23.60173 | -44.76910 | 27962 ft | 271 kts | 247° |
| 2026-05-07 23:32 | -23.60833 | -44.78841 | 27965 ft | 270 kts | 247° |
| 2026-05-07 23:32 | -23.61493 | -44.80772 | 27962 ft | 270 kts | 247° |
| 2026-05-07 23:32 | -23.62148 | -44.82689 | 27960 ft | 270 kts | 247° |
| 2026-05-07 23:33 | -23.62804 | -44.84610 | 27958 ft | 270 kts | 247° |
| 2026-05-07 23:33 | -23.63456 | -44.86516 | 27964 ft | 270 kts | 247° |
| 2026-05-07 23:33 | -23.64118 | -44.88450 | 27963 ft | 270 kts | 247° |
| 2026-05-07 23:33 | -23.64767 | -44.90349 | 27963 ft | 270 kts | 247° |
| 2026-05-07 23:34 | -23.65429 | -44.92288 | 27964 ft | 270 kts | 247° |
| 2026-05-07 23:34 | -23.66082 | -44.94195 | 27961 ft | 270 kts | 247° |
| 2026-05-07 23:34 | -23.66737 | -44.96110 | 27963 ft | 270 kts | 247° |
| 2026-05-07 23:34 | -23.67397 | -44.98039 | 27961 ft | 270 kts | 247° |
| 2026-05-07 23:35 | -23.68050 | -44.99945 | 27960 ft | 269 kts | 247° |
| 2026-05-07 23:35 | -23.68729 | -45.01852 | 27963 ft | 269 kts | 248° |
| 2026-05-07 23:35 | -23.69433 | -45.03728 | 27964 ft | 269 kts | 248° |
| 2026-05-07 23:35 | -23.70157 | -45.05633 | 27966 ft | 269 kts | 247° |
| 2026-05-07 23:36 | -23.70875 | -45.07515 | 27964 ft | 269 kts | 247° |
| 2026-05-07 23:36 | -23.71591 | -45.09390 | 27965 ft | 269 kts | 247° |
| 2026-05-07 23:36 | -23.72311 | -45.11275 | 27965 ft | 269 kts | 247° |
| 2026-05-07 23:36 | -23.73033 | -45.13163 | 27967 ft | 269 kts | 247° |
| 2026-05-07 23:37 | -23.73753 | -45.15047 | 27969 ft | 269 kts | 247° |
| 2026-05-07 23:37 | -23.74466 | -45.16913 | 27966 ft | 269 kts | 247° |
| 2026-05-07 23:37 | -23.75064 | -45.18849 | 27961 ft | 269 kts | 256° |
| 2026-05-07 23:37 | -23.75411 | -45.20847 | 27962 ft | 269 kts | 259° |
| 2026-05-07 23:38 | -23.75740 | -45.22860 | 27968 ft | 269 kts | 257° |
| 2026-05-07 23:38 | -23.76171 | -45.24842 | 27969 ft | 269 kts | 255° |
| 2026-05-07 23:38 | -23.76639 | -45.26809 | 27965 ft | 268 kts | 255° |
| 2026-05-07 23:38 | -23.77085 | -45.28806 | 27964 ft | 269 kts | 256° |
| 2026-05-07 23:39 | -23.77513 | -45.30788 | 27890 ft | 273 kts | 256° |
| 2026-05-07 23:39 | -23.77954 | -45.32823 | 27711 ft | 275 kts | 256° |
| 2026-05-07 23:39 | -23.78402 | -45.34870 | 27446 ft | 278 kts | 256° |
| 2026-05-07 23:39 | -23.78859 | -45.36935 | 27100 ft | 281 kts | 256° |
| 2026-05-07 23:40 | -23.79320 | -45.39008 | 26760 ft | 282 kts | 256° |
| 2026-05-07 23:40 | -23.79744 | -45.41105 | 26419 ft | 283 kts | 262° |
| 2026-05-07 23:40 | -23.79883 | -45.43235 | 26091 ft | 284 kts | 266° |
| 2026-05-07 23:40 | -23.79956 | -45.45403 | 25755 ft | 283 kts | 267° |
| 2026-05-07 23:41 | -23.80060 | -45.47563 | 25429 ft | 282 kts | 265° |
| 2026-05-07 23:41 | -23.80182 | -45.49679 | 25112 ft | 282 kts | 265° |
| 2026-05-07 23:41 | -23.80297 | -45.51808 | 24796 ft | 282 kts | 266° |
| 2026-05-07 23:41 | -23.80404 | -45.53959 | 24478 ft | 282 kts | 266° |
| 2026-05-07 23:42 | -23.80512 | -45.56099 | 24165 ft | 281 kts | 266° |
| 2026-05-07 23:42 | -23.80623 | -45.58225 | 23858 ft | 280 kts | 266° |
| 2026-05-07 23:42 | -23.80733 | -45.60352 | 23547 ft | 279 kts | 266° |
| 2026-05-07 23:42 | -23.80841 | -45.62469 | 23185 ft | 278 kts | 266° |
| 2026-05-07 23:43 | -23.80946 | -45.64551 | 22825 ft | 278 kts | 266° |
| 2026-05-07 23:43 | -23.81054 | -45.66657 | 22465 ft | 277 kts | 266° |
| 2026-05-07 23:43 | -23.81163 | -45.68767 | 22110 ft | 278 kts | 267° |
| 2026-05-07 23:43 | -23.81269 | -45.70878 | 21763 ft | 279 kts | 267° |
| 2026-05-07 23:44 | -23.81375 | -45.73016 | 21413 ft | 279 kts | 267° |
| 2026-05-07 23:44 | -23.81482 | -45.75128 | 21070 ft | 279 kts | 268° |
| 2026-05-07 23:44 | -23.81589 | -45.77255 | 20733 ft | 279 kts | 268° |
| 2026-05-07 23:44 | -23.81695 | -45.79376 | 20395 ft | 279 kts | 268° |
| 2026-05-07 23:45 | -23.81800 | -45.81483 | 20065 ft | 279 kts | 268° |
| 2026-05-07 23:45 | -23.81906 | -45.83615 | 19736 ft | 279 kts | 269° |
| 2026-05-07 23:45 | -23.82010 | -45.85718 | 19416 ft | 279 kts | 269° |
| 2026-05-07 23:45 | -23.82116 | -45.87844 | 19096 ft | 280 kts | 269° |
| 2026-05-07 23:46 | -23.82225 | -45.90000 | 18776 ft | 282 kts | 269° |
| 2026-05-07 23:46 | -23.82328 | -45.92143 | 18466 ft | 284 kts | 269° |
| 2026-05-07 23:46 | -23.82432 | -45.94303 | 18142 ft | 284 kts | 270° |
| 2026-05-07 23:46 | -23.82534 | -45.96430 | 17788 ft | 283 kts | 270° |
| 2026-05-07 23:47 | -23.82640 | -45.98573 | 17431 ft | 282 kts | 270° |
| 2026-05-07 23:47 | -23.82746 | -46.00734 | 17076 ft | 280 kts | 270° |
| 2026-05-07 23:47 | -23.82848 | -46.02834 | 16732 ft | 279 kts | 270° |
| 2026-05-07 23:47 | -23.82951 | -46.04954 | 16392 ft | 278 kts | 270° |
| 2026-05-07 23:48 | -23.83052 | -46.07059 | 16054 ft | 276 kts | 270° |
| 2026-05-07 23:48 | -23.83152 | -46.09130 | 15719 ft | 275 kts | 270° |
| 2026-05-07 23:48 | -23.83251 | -46.11212 | 15388 ft | 274 kts | 270° |
| 2026-05-07 23:48 | -23.83351 | -46.13293 | 15055 ft | 272 kts | 270° |
| 2026-05-07 23:49 | -23.83450 | -46.15362 | 14728 ft | 271 kts | 270° |
| 2026-05-07 23:49 | -23.83547 | -46.17400 | 14408 ft | 270 kts | 270° |
| 2026-05-07 23:49 | -23.83643 | -46.19437 | 14094 ft | 268 kts | 270° |
| 2026-05-07 23:49 | -23.83737 | -46.21481 | 13773 ft | 267 kts | 270° |
| 2026-05-07 23:50 | -23.83836 | -46.23480 | 13427 ft | 264 kts | 270° |
| 2026-05-07 23:50 | -23.83933 | -46.25472 | 13078 ft | 264 kts | 271° |
| 2026-05-07 23:50 | -23.84027 | -46.27492 | 12720 ft | 261 kts | 270° |
| 2026-05-07 23:50 | -23.84117 | -46.29444 | 12384 ft | 258 kts | 270° |
| 2026-05-07 23:51 | -23.84213 | -46.31430 | 12028 ft | 256 kts | 271° |
| 2026-05-07 23:51 | -23.84296 | -46.33342 | 11700 ft | 254 kts | 270° |
| 2026-05-07 23:51 | -23.84395 | -46.35264 | 11368 ft | 251 kts | 270° |
| 2026-05-07 23:51 | -23.84485 | -46.37159 | 11048 ft | 250 kts | 271° |
| 2026-05-07 23:52 | -23.84500 | -46.38425 | 10832 ft | 247 kts | 275° |
| 2026-05-07 23:52 | -23.84389 | -46.40267 | 10510 ft | 242 kts | 280° |
| 2026-05-07 23:52 | -23.84116 | -46.42078 | 10193 ft | 237 kts | 286° |
| 2026-05-07 23:52 | -23.83696 | -46.43792 | 9879 ft | 233 kts | 291° |
| 2026-05-07 23:53 | -23.83432 | -46.45532 | 9530 ft | 233 kts | 281° |
| 2026-05-07 23:53 | -23.83158 | -46.47283 | 9173 ft | 229 kts | 287° |
| 2026-05-07 23:53 | -23.82679 | -46.48917 | 8827 ft | 225 kts | 294° |
| 2026-05-07 23:53 | -23.82017 | -46.50456 | 8490 ft | 223 kts | 301° |
| 2026-05-07 23:54 | -23.81776 | -46.50944 | 8380 ft | 222 kts | 301° |
| 2026-05-07 23:54 | -23.81189 | -46.52111 | 8115 ft | 220 kts | 302° |
| 2026-05-07 23:54 | -23.80444 | -46.53519 | 7775 ft | 210 kts | 308° |
| 2026-05-07 23:54 | -23.79511 | -46.54423 | 7475 ft | 192 kts | 333° |
| 2026-05-07 23:55 | -23.78316 | -46.54929 | 7145 ft | 178 kts | 338° |
| 2026-05-07 23:55 | -23.77254 | -46.55535 | 6816 ft | 169 kts | 330° |
| 2026-05-07 23:55 | -23.76278 | -46.56217 | 6492 ft | 165 kts | 328° |
| 2026-05-07 23:55 | -23.75313 | -46.56892 | 6149 ft | 161 kts | 329° |
| 2026-05-07 23:56 | -23.74365 | -46.57547 | 5789 ft | 161 kts | 329° |
| 2026-05-07 23:56 | -23.73426 | -46.58195 | 5406 ft | 160 kts | 329° |
| 2026-05-07 23:56 | -23.72465 | -46.58858 | 5016 ft | 151 kts | 330° |
| 2026-05-07 23:56 | -23.71635 | -46.59429 | 4645 ft | 143 kts | 330° |
| 2026-05-07 23:57 | -23.70804 | -46.60007 | 4267 ft | 138 kts | 330° |
| 2026-05-07 23:57 | -23.69996 | -46.60566 | 3910 ft | 136 kts | 331° |
| 2026-05-07 23:57 | -23.69202 | -46.61102 | 3690 ft | 132 kts | 330° |
| 2026-05-07 23:57 | -23.68373 | -46.61600 | 3682 ft | 142 kts | 342° |
| 2026-05-07 23:58 | -23.67427 | -46.61992 | 3691 ft | 144 kts | 335° |
| 2026-05-07 23:58 | -23.66610 | -46.62508 | 3581 ft | 132 kts | 328° |
| 2026-05-07 23:58 | -23.65877 | -46.63107 | 3257 ft | 120 kts | 325° |
| 2026-05-07 23:58 | -23.65286 | -46.63579 | 3130 ft | 89 kts | 326° |
| 2026-05-07 23:59 | -23.64767 | -46.64000 | 3044 ft | 95 kts | 323° |
| 2026-05-07 23:59 | -23.64198 | -46.64367 | 2948 ft | 97 kts | 332° |
| 2026-05-07 23:59 | -23.63620 | -46.64736 | 2810 ft | 94 kts | 329° |
| 2026-05-07 23:59 | -23.63094 | -46.65108 | 2632 ft | 85 kts | 329° |
| 2026-05-08 00:00 | -23.62648 | -46.65399 | 2592 ft | 65 kts | 326° |
| 2026-05-08 00:00 | -23.62353 | -46.65610 | 2600 ft | 44 kts | 326° |
| 2026-05-08 00:00 | -23.62182 | -46.65733 | 2600 ft | 14 kts | 329° |
| 2026-05-08 00:00 | -23.62131 | -46.65734 | 2595 ft | 6 kts | 40° |
| 2026-05-08 00:01 | -23.62125 | -46.65727 | 2600 ft | 0 kts | 51° |
| 2026-05-08 00:02 | -23.62121 | -46.65722 | 2600 ft | 4 kts | 58° |
| 2026-05-08 00:03 | -23.62119 | -46.65717 | 2600 ft | 1 kts | 60° |
| 2026-05-08 00:03 | -23.62111 | -46.65699 | 2599 ft | 4 kts | 75° |
| 2026-05-08 00:03 | -23.62123 | -46.65674 | 2601 ft | 6 kts | 150° |
| 2026-05-08 00:03 | -23.62171 | -46.65643 | 2594 ft | 5 kts | 146° |
| 2026-05-08 00:04 | -23.62178 | -46.65636 | 2594 ft | 0 kts | 125° |
| 2026-05-08 00:04 | -23.62180 | -46.65634 | 2594 ft | 0 kts | 123° |
| 2026-05-08 00:05 | -23.62180 | -46.65633 | 2594 ft | 1 kts | 123° |
| 2026-05-08 00:05 | -23.62181 | -46.65627 | 2591 ft | 3 kts | 84° |
| 2026-05-08 00:05 | -23.62176 | -46.65614 | 2592 ft | 2 kts | 58° |
| 2026-05-08 00:05 | -23.62174 | -46.65610 | 2593 ft | 2 kts | 55° |
| 2026-05-08 00:06 | -23.62166 | -46.65598 | 2592 ft | 0 kts | 53° |